createdAt,value
2019-03-11T00:02:30.277Z,8.67
2019-03-11T00:06:31.196Z,8.20
2019-03-11T00:10:32.071Z,13.47
2019-03-11T00:14:32.964Z,15.70
2019-03-11T00:18:33.936Z,9.33
2019-03-11T00:22:34.901Z,9.30
2019-03-11T00:26:35.783Z,19.73
2019-03-11T00:30:36.641Z,11.97
2019-03-11T00:34:37.526Z,17.17
2019-03-11T00:38:38.588Z,11.97
2019-03-11T00:42:39.533Z,15.50
2019-03-11T00:46:40.397Z,10.60
2019-03-11T00:50:41.366Z,9.97
2019-03-11T00:54:42.271Z,12.47
2019-03-11T00:58:43.133Z,22.23
2019-03-11T01:02:44.138Z,13.63
2019-03-11T01:06:44.983Z,12.90
2019-03-11T01:10:45.979Z,13.50
2019-03-11T01:14:46.951Z,21.80
2019-03-11T01:18:47.825Z,16.27
2019-03-11T01:22:48.783Z,19.47
2019-03-11T01:26:49.658Z,12.87
2019-03-11T01:30:50.531Z,9.80
2019-03-11T01:34:51.442Z,20.63
2019-03-11T01:38:52.322Z,15.53
2019-03-11T01:42:53.158Z,8.33
2019-03-11T01:46:54.140Z,16.57
2019-03-11T01:50:55.025Z,10.90
2019-03-11T01:54:55.907Z,17.37
2019-03-11T01:58:56.841Z,13.07
2019-03-11T02:02:57.726Z,13.50
2019-03-11T02:06:58.611Z,12.17
2019-03-11T02:10:59.486Z,13.60
2019-03-11T02:15:00.507Z,8.60
2019-03-11T02:19:01.416Z,10.60
2019-03-11T02:23:02.288Z,11.03
2019-03-11T02:27:03.353Z,14.10
2019-03-11T02:31:04.243Z,16.27
2019-03-11T02:35:05.308Z,10.23
2019-03-11T02:39:06.798Z,17.43
2019-03-11T02:43:07.773Z,9.73
2019-03-11T02:47:08.694Z,24.87
2019-03-11T02:51:09.755Z,12.40
2019-03-11T02:55:10.743Z,11.50
2019-03-11T02:59:11.692Z,21.53
2019-03-11T03:03:14.477Z,16.47
2019-03-11T03:07:15.477Z,6.27
2019-03-11T03:11:16.438Z,1.03
2019-03-11T03:15:17.310Z,7.07
2019-03-11T03:19:18.283Z,10.60
2019-03-11T03:23:19.232Z,18.90
2019-03-11T03:27:20.138Z,13.73
2019-03-11T03:31:20.987Z,19.67
2019-03-11T03:35:21.899Z,7.47
2019-03-11T03:39:22.859Z,10.27
2019-03-11T03:43:23.731Z,11.07
2019-03-11T03:47:24.615Z,3.73
2019-03-11T03:51:25.487Z,1.33
2019-03-11T03:55:26.374Z,0.87
2019-03-11T03:59:27.240Z,7.97
2019-03-11T04:03:48.070Z,0.60
2019-03-11T04:07:49.132Z,1.07
2019-03-11T04:11:50.121Z,0.80
2019-03-11T04:15:51.213Z,0.90
2019-03-11T04:19:52.167Z,1.27
2019-03-11T04:23:53.169Z,1.00
2019-03-11T04:27:54.232Z,1.70
2019-03-11T04:31:55.111Z,3.13
2019-03-11T04:35:56.095Z,1.10
2019-03-11T04:39:56.959Z,2.57
2019-03-11T04:43:57.829Z,0.70
2019-03-11T04:47:58.783Z,1.77
2019-03-11T04:51:59.870Z,1.03
2019-03-11T04:56:00.974Z,4.53
2019-03-11T05:00:03.343Z,1.13
2019-03-11T05:04:04.259Z,1.00
2019-03-11T05:08:05.156Z,0.77
2019-03-11T05:12:06.035Z,0.80
2019-03-11T05:16:06.940Z,1.03
2019-03-11T05:20:10.316Z,1.17
2019-03-11T05:24:11.327Z,1.33
2019-03-11T05:28:12.415Z,1.10
2019-03-11T05:32:13.296Z,2.23
2019-03-11T05:36:14.150Z,3.67
2019-03-11T05:40:16.285Z,3.57
2019-03-11T05:44:17.145Z,2.30
2019-03-11T05:48:18.040Z,7.47
2019-03-11T05:52:18.894Z,4.23
2019-03-11T05:56:19.765Z,4.27
2019-03-11T06:00:28.541Z,4.47
2019-03-11T06:04:29.410Z,3.80
2019-03-11T06:08:30.456Z,2.27
2019-03-11T06:12:31.391Z,2.43
2019-03-11T06:16:32.916Z,2.10
2019-03-11T06:20:38.552Z,3.00
2019-03-11T06:24:39.403Z,1.63
2019-03-11T06:28:40.403Z,2.87
2019-03-11T06:32:41.442Z,3.43
2019-03-11T06:36:42.432Z,2.30
2019-03-11T06:40:45.737Z,2.87
2019-03-11T06:44:46.205Z,3.33
2019-03-11T06:48:47.488Z,5.53
2019-03-11T06:52:48.558Z,4.57
2019-03-11T06:56:49.439Z,3.33
2019-03-11T07:00:50.321Z,6.23
2019-03-11T07:04:51.287Z,4.70
2019-03-11T07:08:52.205Z,4.33
2019-03-11T07:12:53.074Z,4.10
2019-03-11T07:16:54.181Z,4.30
2019-03-11T07:20:55.197Z,5.47
2019-03-11T07:24:56.096Z,5.37
2019-03-11T07:28:57.053Z,5.13
2019-03-11T07:32:58.149Z,4.90
2019-03-11T07:36:59.103Z,11.43
2019-03-11T07:41:00.359Z,4.87
2019-03-11T07:45:01.504Z,3.80
2019-03-11T07:49:02.588Z,3.80
2019-03-11T07:53:03.770Z,4.07
2019-03-11T07:57:04.786Z,2.90
2019-03-11T08:01:05.669Z,6.03
2019-03-11T08:05:08.249Z,8.43
2019-03-11T08:09:09.172Z,5.80
2019-03-11T08:13:10.044Z,6.73
2019-03-11T08:17:10.942Z,9.30
2019-03-11T08:21:11.889Z,3.03
2019-03-11T08:25:13.874Z,5.63
2019-03-11T08:29:14.740Z,2.70
2019-03-11T08:33:15.905Z,7.67
2019-03-11T08:37:16.880Z,4.37
2019-03-11T08:41:17.758Z,6.60
2019-03-11T08:45:19.153Z,8.03
2019-03-11T08:49:21.453Z,8.13
2019-03-11T08:53:22.404Z,10.93
2019-03-11T08:57:23.363Z,9.50
2019-03-11T09:01:24.269Z,3.80
2019-03-11T09:05:25.273Z,6.53
2019-03-11T09:09:26.745Z,5.67
2019-03-11T09:13:27.893Z,10.97
2019-03-11T09:17:28.773Z,11.47
2019-03-11T09:21:29.650Z,10.70
2019-03-11T09:25:30.530Z,3.60
2019-03-11T09:29:31.471Z,6.87
2019-03-11T09:33:32.374Z,5.37
2019-03-11T09:37:33.346Z,6.57
2019-03-11T09:41:34.313Z,3.60
2019-03-11T09:45:35.368Z,8.97
2019-03-11T09:49:36.234Z,4.27
2019-03-11T09:53:37.133Z,2.70
2019-03-11T09:57:38.063Z,5.57
2019-03-11T10:01:39.018Z,4.87
2019-03-11T10:05:39.973Z,3.90
2019-03-11T10:09:40.993Z,4.40
2019-03-11T10:13:42.147Z,5.63
2019-03-11T10:17:43.259Z,6.63
2019-03-11T10:21:44.229Z,7.30
2019-03-11T10:25:45.337Z,6.80
2019-03-11T10:29:46.309Z,3.93
2019-03-11T10:33:47.200Z,4.87
2019-03-11T10:37:48.339Z,3.37
2019-03-11T10:41:49.403Z,3.57
2019-03-11T10:45:50.354Z,6.43
2019-03-11T10:49:51.241Z,4.60
2019-03-11T10:53:52.116Z,6.20
2019-03-11T10:57:53.087Z,5.00
2019-03-11T11:01:54.068Z,6.07
2019-03-11T11:05:55.082Z,5.13
2019-03-11T11:09:56.101Z,6.20
2019-03-11T11:13:56.996Z,8.40
2019-03-11T11:17:57.867Z,7.37
2019-03-11T11:21:58.782Z,7.90
2019-03-11T11:25:59.845Z,8.27
2019-03-11T11:30:00.859Z,8.90
2019-03-11T11:34:01.843Z,6.17
2019-03-11T11:38:02.828Z,7.43
2019-03-11T11:42:03.919Z,5.30
2019-03-11T11:46:04.907Z,8.10
2019-03-11T11:50:12.395Z,8.10
2019-03-11T11:54:13.336Z,4.90
2019-03-11T11:58:14.293Z,4.57
2019-03-11T12:02:15.260Z,10.83
2019-03-11T12:06:16.148Z,4.93
2019-03-11T12:10:19.143Z,3.50
2019-03-11T12:14:20.016Z,7.53
2019-03-11T12:18:21.010Z,4.73
2019-03-11T12:22:22.103Z,8.13
2019-03-11T12:26:22.976Z,3.53
2019-03-11T12:30:28.186Z,4.50
2019-03-11T12:34:29.068Z,3.77
2019-03-11T12:38:30.095Z,11.63
2019-03-11T12:42:31.097Z,5.13
2019-03-11T12:46:31.932Z,6.73
2019-03-11T12:50:32.927Z,6.27
2019-03-11T12:54:33.873Z,7.90
2019-03-11T12:58:41.504Z,8.50
2019-03-11T13:02:37.530Z,7.70
2019-03-11T13:06:38.393Z,8.10
2019-03-11T13:10:39.325Z,9.00
2019-03-11T13:14:40.341Z,4.17
2019-03-11T13:18:41.476Z,8.40
2019-03-11T13:22:42.522Z,8.87
2019-03-11T13:26:43.385Z,5.90
2019-03-11T13:30:44.411Z,7.73
2019-03-11T13:34:45.358Z,6.63
2019-03-11T13:38:46.474Z,5.57
2019-03-11T13:42:47.429Z,6.73
2019-03-11T13:46:48.311Z,10.50
2019-03-11T13:50:49.207Z,4.93
2019-03-11T13:54:50.145Z,6.40
2019-03-11T13:58:51.086Z,12.13
2019-03-11T14:02:51.955Z,6.57
2019-03-11T14:06:52.942Z,5.47
2019-03-11T14:10:53.964Z,13.67
2019-03-11T14:14:54.845Z,3.27
2019-03-11T14:18:55.720Z,3.80
2019-03-11T14:22:56.727Z,3.27
2019-03-11T14:26:57.740Z,3.00
2019-03-11T14:30:58.854Z,3.60
2019-03-11T14:34:59.932Z,6.83
2019-03-11T14:39:00.831Z,4.13
2019-03-11T14:43:01.766Z,6.83
2019-03-11T14:47:02.862Z,6.23
2019-03-11T14:51:03.909Z,4.20
2019-03-11T14:55:07.245Z,4.53
2019-03-11T14:59:08.231Z,8.67
2019-03-11T15:03:09.270Z,5.30
2019-03-11T15:07:10.426Z,8.73
2019-03-11T15:11:11.478Z,4.23
2019-03-11T15:15:21.131Z,7.20
2019-03-11T15:19:22.087Z,10.90
2019-03-11T15:23:23.050Z,8.23
2019-03-11T15:27:24.006Z,7.20
2019-03-11T15:31:24.905Z,7.20
2019-03-11T15:35:25.805Z,6.80
2019-03-11T15:39:26.693Z,8.43
2019-03-11T15:43:27.821Z,5.20
2019-03-11T15:47:29.849Z,7.43
2019-03-11T15:51:36.488Z,8.10
2019-03-11T15:55:33.651Z,5.80
2019-03-11T15:59:34.595Z,5.07
2019-03-11T16:03:36.532Z,6.13
2019-03-11T16:07:37.775Z,7.60
2019-03-11T16:11:38.816Z,3.57
2019-03-11T16:15:39.974Z,11.07
2019-03-11T16:19:41.444Z,8.87
2019-03-11T16:23:42.589Z,5.20
2019-03-11T16:27:43.715Z,4.97
2019-03-11T16:31:44.916Z,6.57
2019-03-11T16:35:45.886Z,7.90
2019-03-11T16:39:46.773Z,5.00
2019-03-11T16:43:47.721Z,7.03
2019-03-11T16:47:48.766Z,7.80
2019-03-11T16:51:49.852Z,12.43
2019-03-11T16:55:53.632Z,8.30
2019-03-11T16:59:54.526Z,9.80
2019-03-11T17:03:55.719Z,6.33
2019-03-11T17:07:56.805Z,4.93
2019-03-11T17:11:57.734Z,11.83
2019-03-11T17:15:58.648Z,7.17
2019-03-11T17:19:59.499Z,18.97
2019-03-11T17:24:00.520Z,6.60
2019-03-11T17:28:01.544Z,5.00
2019-03-11T17:32:02.816Z,10.17
2019-03-11T17:36:03.838Z,6.40
2019-03-11T17:40:16.889Z,5.33
2019-03-11T17:44:17.963Z,7.25
2019-03-11T17:48:18.997Z,6.30
2019-03-11T17:52:20.054Z,8.97
2019-03-11T17:56:20.931Z,5.90
2019-03-11T18:00:27.827Z,4.30
2019-03-11T18:04:28.955Z,7.80
2019-03-11T18:08:30.003Z,6.40
2019-03-11T18:12:30.983Z,4.43
2019-03-11T18:16:32.008Z,7.90
2019-03-11T18:20:33.125Z,8.60
2019-03-11T18:24:34.235Z,8.93
2019-03-11T18:28:35.326Z,7.43
2019-03-11T18:32:36.395Z,6.30
2019-03-11T18:36:37.326Z,6.87
2019-03-11T18:40:38.342Z,6.40
2019-03-11T18:44:39.419Z,8.40
2019-03-11T18:48:40.428Z,4.10
2019-03-11T18:52:41.677Z,5.30
2019-03-11T18:56:42.916Z,8.00
2019-03-11T19:00:43.999Z,8.43
2019-03-11T19:04:44.868Z,8.97
2019-03-11T19:08:45.891Z,8.23
2019-03-11T19:12:47.278Z,8.68
2019-03-11T19:16:48.421Z,14.63
2019-03-11T19:20:49.409Z,9.00
2019-03-11T19:24:50.447Z,7.33
2019-03-11T19:28:51.509Z,9.20
2019-03-11T19:32:52.625Z,12.70
2019-03-11T19:36:53.520Z,10.83
2019-03-11T19:40:54.533Z,10.60
2019-03-11T19:44:55.539Z,9.93
2019-03-11T19:48:56.664Z,9.30
2019-03-11T19:52:59.435Z,13.50
2019-03-11T19:57:00.739Z,10.70
2019-03-11T20:01:01.837Z,9.87
2019-03-11T20:05:04.971Z,12.97
2019-03-11T20:09:07.717Z,8.47
2019-03-11T20:13:09.088Z,9.70
2019-03-11T20:17:10.151Z,8.20
2019-03-11T20:21:11.321Z,8.77
2019-03-11T20:25:15.823Z,8.97
2019-03-11T20:29:16.762Z,7.50
2019-03-11T20:33:17.817Z,10.70
2019-03-11T20:37:18.985Z,9.60
2019-03-11T20:41:19.920Z,13.53
2019-03-11T20:45:21.221Z,11.13
2019-03-11T20:49:22.121Z,8.57
2019-03-11T20:53:23.201Z,9.90
2019-03-11T20:57:24.158Z,10.37
2019-03-11T21:01:25.258Z,12.80
2019-03-11T21:05:29.791Z,12.50
2019-03-11T21:09:30.783Z,12.80
2019-03-11T21:13:31.755Z,16.67
2019-03-11T21:17:32.735Z,9.70
2019-03-11T21:21:33.855Z,11.47
2019-03-11T21:25:34.914Z,10.10
2019-03-11T21:29:38.522Z,13.87
2019-03-11T21:33:38.737Z,10.77
2019-03-11T21:37:39.864Z,19.77
2019-03-11T21:41:40.881Z,13.17
2019-03-11T21:45:41.862Z,14.00
2019-03-11T21:49:42.903Z,10.03
2019-03-11T21:53:44.905Z,15.20
2019-03-11T21:57:46.021Z,16.03
2019-03-11T22:01:47.021Z,10.87
2019-03-11T22:05:48.169Z,11.57
2019-03-11T22:09:49.108Z,19.43
2019-03-11T22:13:50.021Z,15.07
2019-03-11T22:17:51.164Z,14.20
2019-03-11T22:21:52.217Z,14.97
2019-03-11T22:25:53.098Z,12.30
2019-03-11T22:29:54.085Z,13.37
2019-03-11T22:33:54.986Z,15.20
2019-03-11T22:37:55.968Z,11.07
2019-03-11T22:41:56.950Z,12.27
2019-03-11T22:45:57.862Z,18.03
2019-03-11T22:49:58.735Z,7.57
2019-03-11T22:53:59.587Z,13.13
2019-03-11T22:58:00.469Z,10.67
2019-03-11T23:02:01.649Z,9.10
2019-03-11T23:06:03.026Z,12.77
2019-03-11T23:10:05.827Z,14.53
2019-03-11T23:14:06.792Z,9.63
2019-03-11T23:18:07.862Z,9.70
2019-03-11T23:22:08.766Z,11.23
2019-03-11T23:26:09.634Z,15.83
2019-03-11T23:30:12.506Z,12.93
2019-03-11T23:34:13.491Z,14.33
2019-03-11T23:38:14.518Z,11.17
2019-03-11T23:42:15.392Z,18.40
2019-03-11T23:46:16.384Z,15.47
2019-03-11T23:50:19.529Z,13.80
2019-03-11T23:54:20.082Z,11.80
2019-03-11T23:58:20.972Z,13.77
